Time;durP1;ratioP1;P1;durP2;ratioP2;P2;SDS_P1;SDS_P2;PMS_P1;PMS_P2;Temp;Humidity;BMP_temperature;BMP_pressure;BME280_temperature;BME280_humidity;BME280_pressure;Samples;Min_cycle;Max_cycle;Signal;HPM_P1;HPM_P2
2023/04/04 00:00:18;;;;;;;9.93;3.97;;;1.90;99.90;;;;;;5111160;27;20455;-73
2023/04/04 00:02:45;;;;;;;9.45;3.70;;;1.90;99.90;;;;;;5118046;27;20031;-74
2023/04/04 00:05:12;;;;;;;7.97;3.58;;;1.80;99.90;;;;;;5110123;27;20396;-73
2023/04/04 00:07:37;;;;;;;11.40;3.70;;;1.80;99.90;;;;;;5125935;27;20039;-74
2023/04/04 00:10:05;;;;;;;10.05;4.10;;;1.80;99.90;;;;;;5115111;27;20095;-73
2023/04/04 00:12:31;;;;;;;7.25;3.90;;;1.80;99.90;;;;;;5119719;27;20039;-73
2023/04/04 00:14:56;;;;;;;6.70;3.67;;;1.80;99.90;;;;;;5116363;27;20043;-73
2023/04/04 00:17:22;;;;;;;11.43;4.55;;;1.80;99.90;;;;;;5113516;27;20404;-73
2023/04/04 00:19:47;;;;;;;9.70;3.47;;;1.80;99.90;;;;;;5125904;27;20039;-73
2023/04/04 00:22:13;;;;;;;9.45;4.15;;;1.90;99.90;;;;;;5103228;27;20038;-74
2023/04/04 00:24:39;;;;;;;7.80;3.75;;;1.80;99.90;;;;;;5129354;27;20039;-73
2023/04/04 00:27:05;;;;;;;9.60;3.88;;;1.80;99.90;;;;;;5089214;28;20046;-74
2023/04/04 00:29:33;;;;;;;10.50;3.85;;;1.80;99.90;;;;;;5128815;28;20486;-73
2023/04/04 00:31:59;;;;;;;14.52;4.25;;;1.70;99.90;;;;;;5091459;28;20047;-73
2023/04/04 00:34:25;;;;;;;12.20;4.15;;;1.70;99.90;;;;;;5118548;28;20039;-73
2023/04/04 00:36:51;;;;;;;8.63;4.72;;;1.70;99.90;;;;;;5118942;28;20377;-73
2023/04/04 00:39:17;;;;;;;9.82;4.95;;;1.70;99.90;;;;;;5113359;28;20040;-73
2023/04/04 00:41:43;;;;;;;13.93;5.43;;;1.80;99.90;;;;;;5104464;28;20247;-73
2023/04/04 00:44:08;;;;;;;14.25;5.22;;;2.00;99.90;;;;;;5096183;28;20110;-73
2023/04/04 00:46:34;;;;;;;9.07;4.95;;;1.80;99.90;;;;;;5111162;28;20449;-72
2023/04/04 00:49:00;;;;;;;11.20;5.32;;;1.80;99.90;;;;;;5127975;28;20047;-72
2023/04/04 00:51:26;;;;;;;11.65;4.78;;;1.80;99.90;;;;;;5109556;28;20036;-73
2023/04/04 00:53:52;;;;;;;10.68;4.75;;;1.80;99.90;;;;;;5096867;28;20043;-73
2023/04/04 00:56:19;;;;;;;11.20;4.88;;;1.80;99.90;;;;;;5092591;28;20150;-72
2023/04/04 00:58:45;;;;;;;9.73;4.82;;;1.80;99.90;;;;;;5094962;28;20044;-74
2023/04/04 01:01:12;;;;;;;12.00;4.82;;;1.80;99.90;;;;;;5096008;28;20043;-72
2023/04/04 01:03:38;;;;;;;10.13;4.88;;;1.80;99.90;;;;;;5110011;28;20044;-72
2023/04/04 01:06:05;;;;;;;13.55;4.97;;;1.70;99.90;;;;;;5101330;28;20043;-72
2023/04/04 01:08:32;;;;;;;13.18;5.20;;;1.80;99.90;;;;;;5105317;28;20054;-72
2023/04/04 01:10:58;;;;;;;13.60;5.05;;;1.70;99.90;;;;;;5097967;28;20040;-73
2023/04/04 01:13:25;;;;;;;17.02;5.60;;;1.70;99.90;;;;;;5109529;28;20108;-72
2023/04/04 01:15:51;;;;;;;13.07;4.72;;;1.70;99.90;;;;;;5100914;28;20054;-73
2023/04/04 01:18:20;;;;;;;11.00;5.18;;;1.60;99.90;;;;;;5089405;28;20456;-72
2023/04/04 01:21:03;;;;;;;9.20;5.38;;;1.60;99.90;;;;;;5095192;28;20055;-73
2023/04/04 01:23:44;;;;;;;7.75;4.68;;;1.60;99.90;;;;;;5106097;28;20040;-73
2023/04/04 01:26:10;;;;;;;14.55;5.25;;;1.60;99.90;;;;;;5109614;28;20032;-73
2023/04/04 01:28:35;;;;;;;13.57;5.00;;;1.60;99.90;;;;;;5107009;28;20503;-72
2023/04/04 01:31:03;;;;;;;9.75;4.68;;;1.50;99.90;;;;;;5098670;28;20117;-72
2023/04/04 01:33:36;;;;;;;8.02;4.63;;;1.50;99.90;;;;;;5100160;28;20048;-72
2023/04/04 01:36:30;;;;;;;12.68;4.93;;;1.50;99.90;;;;;;5106422;28;20035;-72
2023/04/04 01:39:34;;;;;;;11.30;4.95;;;1.50;99.90;;;;;;5082790;28;20051;-73
2023/04/04 01:42:01;;;;;;;9.45;4.70;;;1.40;99.90;;;;;;5079781;28;20058;-73
2023/04/04 01:44:27;;;;;;;12.32;5.20;;;1.40;99.90;;;;;;5101505;28;20050;-72
2023/04/04 01:46:54;;;;;;;15.40;5.68;;;1.40;99.90;;;;;;5114532;28;20050;-72
2023/04/04 01:49:20;;;;;;;12.75;5.30;;;1.40;99.90;;;;;;5110400;28;20116;-72
2023/04/04 01:51:46;;;;;;;9.80;5.30;;;1.50;99.90;;;;;;5108361;28;20036;-72
2023/04/04 01:54:12;;;;;;;11.77;5.40;;;1.30;99.90;;;;;;5118607;27;20048;-72
2023/04/04 01:56:37;;;;;;;13.00;4.97;;;1.30;99.90;;;;;;5133269;27;20104;-73
2023/04/04 01:59:03;;;;;;;11.80;5.05;;;1.30;99.90;;;;;;5124155;27;20078;-72
2023/04/04 02:01:29;;;;;;;16.85;5.93;;;1.30;99.90;;;;;;5123770;27;20036;-72
2023/04/04 02:03:54;;;;;;;13.02;4.97;;;1.30;99.90;;;;;;5122064;27;20492;-73
2023/04/04 02:06:20;;;;;;;7.80;5.10;;;1.20;99.90;;;;;;5111908;27;20040;-73
2023/04/04 02:08:46;;;;;;;10.88;5.30;;;1.20;99.90;;;;;;5132278;27;20028;-73
2023/04/04 02:11:12;;;;;;;11.73;4.72;;;1.20;99.90;;;;;;5093464;28;20040;-72
2023/04/04 02:13:42;;;;;;;9.15;5.57;;;1.10;99.90;;;;;;5118976;27;20035;-73
2023/04/04 02:16:08;;;;;;;14.27;5.43;;;1.10;99.90;;;;;;5126185;27;20043;-72
2023/04/04 02:18:35;;;;;;;11.98;5.15;;;1.00;99.90;;;;;;5118563;27;20519;-73
2023/04/04 02:21:01;;;;;;;11.65;5.15;;;1.00;99.90;;;;;;5134530;27;20050;-73
2023/04/04 02:23:26;;;;;;;7.95;4.70;;;1.00;99.90;;;;;;5132803;27;20430;-73
2023/04/04 02:25:52;;;;;;;8.43;4.32;;;1.00;99.90;;;;;;5119060;27;20048;-73
2023/04/04 02:28:18;;;;;;;8.77;4.30;;;0.90;99.90;;;;;;5126821;27;20088;-72
2023/04/04 02:30:43;;;;;;;8.13;4.25;;;0.90;99.90;;;;;;5114646;27;20361;-72
2023/04/04 02:33:09;;;;;;;8.40;3.80;;;0.90;99.90;;;;;;5113141;27;20038;-72
2023/04/04 02:35:35;;;;;;;7.75;4.18;;;0.90;99.90;;;;;;5111810;27;20036;-73
2023/04/04 02:38:00;;;;;;;10.27;4.28;;;0.80;99.90;;;;;;5124263;27;20032;-73
2023/04/04 02:40:26;;;;;;;9.75;3.80;;;0.80;99.90;;;;;;5123001;27;20043;-73
2023/04/04 02:42:52;;;;;;;9.77;3.70;;;0.80;99.90;;;;;;5126981;27;20035;-72
2023/04/04 02:45:17;;;;;;;8.63;3.67;;;0.70;99.90;;;;;;5113224;27;20122;-73
2023/04/04 02:47:49;;;;;;;7.00;3.65;;;0.70;99.90;;;;;;5111604;27;20165;-73
2023/04/04 02:50:15;;;;;;;7.65;3.58;;;0.60;99.90;;;;;;5114136;27;20028;-72
2023/04/04 02:52:40;;;;;;;8.07;4.00;;;0.60;99.90;;;;;;5122709;27;20396;-72
2023/04/04 02:55:07;;;;;;;9.75;5.28;;;0.60;99.90;;;;;;5099169;28;20100;-72
2023/04/04 02:57:33;;;;;;;7.93;4.28;;;0.60;99.90;;;;;;5120506;27;20035;-72
2023/04/04 02:59:59;;;;;;;8.27;4.20;;;0.60;99.90;;;;;;5098045;28;20139;-73
2023/04/04 03:02:25;;;;;;;8.35;3.22;;;0.50;99.90;;;;;;5105054;27;20130;-73
2023/04/04 03:04:51;;;;;;;11.75;3.60;;;0.50;99.90;;;;;;5112181;27;20391;-73
2023/04/04 03:07:17;;;;;;;8.73;3.85;;;0.50;99.90;;;;;;5125359;27;20047;-73
2023/04/04 03:09:45;;;;;;;9.80;3.65;;;0.50;99.90;;;;;;5127956;27;20049;-72
2023/04/04 03:12:11;;;;;;;5.47;3.10;;;0.40;99.90;;;;;;5112864;27;20114;-73
2023/04/04 03:14:37;;;;;;;8.80;4.32;;;0.40;99.90;;;;;;5127691;27;20147;-72
2023/04/04 03:17:03;;;;;;;7.82;4.20;;;0.40;99.90;;;;;;5120703;27;20094;-73
2023/04/04 03:19:29;;;;;;;9.43;4.07;;;0.30;99.90;;;;;;5118387;27;20195;-72
2023/04/04 03:21:55;;;;;;;7.28;3.63;;;0.30;99.90;;;;;;5117195;27;20123;-73
2023/04/04 03:24:21;;;;;;;8.25;4.05;;;0.20;99.90;;;;;;5122463;27;20043;-72
2023/04/04 03:26:47;;;;;;;6.75;3.97;;;0.20;99.90;;;;;;5128605;27;20039;-73
2023/04/04 03:29:12;;;;;;;11.50;4.00;;;0.20;99.90;;;;;;5109390;27;20170;-73
2023/04/04 03:31:38;;;;;;;8.07;4.43;;;0.20;99.90;;;;;;5117201;27;20393;-73
2023/04/04 03:34:04;;;;;;;9.52;4.47;;;0.10;99.90;;;;;;5127835;27;20036;-72
2023/04/04 03:36:30;;;;;;;7.63;4.10;;;0.10;99.90;;;;;;5127282;27;20036;-72
2023/04/04 03:38:56;;;;;;;9.27;4.07;;;0.10;99.90;;;;;;5119398;27;20055;-73
2023/04/04 03:41:22;;;;;;;9.13;3.90;;;0.00;99.90;;;;;;5090544;27;20103;-73
2023/04/04 03:43:47;;;;;;;8.65;4.25;;;0.00;99.90;;;;;;5104134;27;20464;-73
2023/04/04 03:46:13;;;;;;;11.18;3.80;;;0.00;99.90;;;;;;5125403;27;20511;-73
2023/04/04 03:48:39;;;;;;;10.57;4.57;;;0.00;99.90;;;;;;5096548;27;20043;-73
2023/04/04 03:51:05;;;;;;;11.23;3.97;;;0.00;99.90;;;;;;5109796;27;20050;-73
2023/04/04 03:53:31;;;;;;;6.20;3.35;;;0.00;99.90;;;;;;5122382;27;20052;-73
2023/04/04 03:55:56;;;;;;;8.57;3.58;;;0.00;99.90;;;;;;5110662;27;20476;-73
2023/04/04 03:58:24;;;;;;;11.90;3.90;;;-0.10;99.90;;;;;;5112441;28;20048;-73
2023/04/04 04:00:50;;;;;;;7.68;4.07;;;-0.10;99.90;;;;;;5099514;28;20042;-72
2023/04/04 04:03:15;;;;;;;9.57;3.80;;;-0.10;99.90;;;;;;5131782;27;20039;-73
2023/04/04 04:05:41;;;;;;;9.95;4.13;;;-0.10;99.90;;;;;;5128434;27;20040;-72
2023/04/04 04:08:07;;;;;;;8.07;3.90;;;0.00;99.90;;;;;;5124624;27;20074;-73
2023/04/04 04:10:32;;;;;;;9.55;3.63;;;0.00;99.90;;;;;;5095955;27;20446;-73
2023/04/04 04:12:58;;;;;;;7.28;3.00;;;0.10;99.90;;;;;;5086785;27;20191;-71
2023/04/04 04:15:24;;;;;;;6.65;3.38;;;0.00;99.90;;;;;;5118757;27;20043;-72
2023/04/04 04:17:50;;;;;;;14.05;4.30;;;0.00;99.90;;;;;;5122114;28;20035;-73
2023/04/04 04:20:15;;;;;;;9.85;3.33;;;0.10;99.90;;;;;;5107474;28;20181;-73
2023/04/04 04:22:46;;;;;;;11.10;4.03;;;0.00;99.90;;;;;;5118704;28;20039;-73
2023/04/04 04:25:12;;;;;;;9.40;3.80;;;0.20;99.90;;;;;;5125981;28;20046;-73
2023/04/04 04:27:38;;;;;;;8.90;3.83;;;0.10;99.90;;;;;;5107732;28;20163;-73
2023/04/04 04:30:04;;;;;;;10.10;4.20;;;0.10;99.90;;;;;;5129074;28;20202;-73
2023/04/04 04:32:29;;;;;;;9.77;3.75;;;0.00;99.90;;;;;;5118692;28;20125;-73
2023/04/04 04:34:55;;;;;;;11.40;3.67;;;0.00;99.90;;;;;;5115224;28;20126;-73
2023/04/04 04:37:22;;;;;;;8.60;3.85;;;0.00;99.90;;;;;;5132635;28;20083;-73
2023/04/04 04:39:48;;;;;;;15.20;3.22;;;0.10;99.90;;;;;;5133091;28;20067;-73
2023/04/04 04:42:13;;;;;;;11.60;4.15;;;0.10;99.90;;;;;;5128509;28;20499;-72
2023/04/04 04:44:39;;;;;;;14.10;4.43;;;0.00;99.90;;;;;;5096179;28;20032;-73
2023/04/04 04:47:05;;;;;;;10.07;4.00;;;0.00;99.90;;;;;;5108162;28;20046;-72
2023/04/04 04:49:34;;;;;;;9.57;4.40;;;0.00;99.90;;;;;;5130995;28;20047;-73
2023/04/04 04:52:01;;;;;;;7.63;3.50;;;0.00;99.90;;;;;;5100298;28;20043;-73
2023/04/04 04:54:27;;;;;;;8.65;4.25;;;0.00;99.90;;;;;;5126318;28;20047;-72
2023/04/04 04:56:53;;;;;;;7.53;4.18;;;0.00;99.90;;;;;;5116219;27;20171;-71
2023/04/04 04:59:19;;;;;;;12.38;4.28;;;0.10;99.90;;;;;;5115776;28;20785;-72
2023/04/04 05:01:45;;;;;;;7.80;4.15;;;0.10;99.90;;;;;;5094655;28;20112;-72
2023/04/04 05:04:11;;;;;;;9.38;4.13;;;0.10;99.90;;;;;;5100219;28;20043;-72
2023/04/04 05:06:37;;;;;;;8.85;4.18;;;0.10;99.90;;;;;;5122604;28;20043;-73
2023/04/04 05:09:09;;;;;;;8.10;3.63;;;0.20;99.90;;;;;;5117879;28;20058;-72
2023/04/04 05:11:35;;;;;;;7.35;3.85;;;0.20;99.90;;;;;;5121886;28;20052;-72
2023/04/04 05:14:05;;;;;;;11.77;5.22;;;0.30;99.90;;;;;;5129155;27;20112;-72
2023/04/04 05:16:34;;;;;;;13.60;4.05;;;0.30;99.90;;;;;;5118262;27;20092;-72
2023/04/04 05:19:00;;;;;;;9.35;4.30;;;0.30;99.90;;;;;;5122929;27;20039;-72
2023/04/04 05:21:25;;;;;;;8.43;3.95;;;0.30;99.90;;;;;;5123983;27;20051;-72
2023/04/04 05:23:51;;;;;;;10.45;3.97;;;0.30;99.90;;;;;;5123469;27;20044;-72
2023/04/04 05:26:16;;;;;;;10.77;4.00;;;0.40;99.90;;;;;;5125080;27;20035;-72
2023/04/04 05:28:42;;;;;;;6.88;3.50;;;0.40;99.90;;;;;;5120951;27;20051;-72
2023/04/04 05:31:08;;;;;;;8.65;4.07;;;0.40;99.90;;;;;;5117321;27;20036;-72
2023/04/04 05:33:33;;;;;;;7.63;3.65;;;0.50;99.90;;;;;;5115970;27;20513;-71
2023/04/04 05:35:59;;;;;;;9.30;3.80;;;0.50;99.90;;;;;;5119040;27;20134;-72
2023/04/04 05:38:26;;;;;;;8.13;3.25;;;0.60;99.90;;;;;;5123662;27;20121;-72
2023/04/04 05:40:54;;;;;;;11.57;3.55;;;0.60;99.90;;;;;;5122913;27;20071;-72
2023/04/04 05:43:20;;;;;;;9.55;3.53;;;0.70;99.90;;;;;;5120501;27;20543;-72
2023/04/04 05:45:46;;;;;;;8.45;3.53;;;0.70;99.90;;;;;;5125421;27;20046;-72
2023/04/04 05:48:11;;;;;;;6.45;3.45;;;0.70;99.90;;;;;;5120659;27;20083;-72
2023/04/04 05:50:37;;;;;;;10.15;4.18;;;0.80;99.90;;;;;;5114814;28;20542;-72
2023/04/04 05:53:03;;;;;;;7.45;4.05;;;0.70;99.90;;;;;;5120351;27;20043;-72
2023/04/04 05:55:29;;;;;;;9.02;3.92;;;0.70;99.90;;;;;;5126895;27;20347;-72
2023/04/04 05:57:55;;;;;;;9.75;4.18;;;0.80;99.90;;;;;;5121188;27;20702;-72
2023/04/04 06:00:21;;;;;;;8.73;4.15;;;0.70;99.90;;;;;;5104435;27;20058;-72
2023/04/04 06:02:47;;;;;;;8.13;4.20;;;0.80;99.90;;;;;;5124395;27;20353;-72
2023/04/04 06:05:13;;;;;;;7.53;3.65;;;0.80;99.90;;;;;;5116627;27;20088;-72
2023/04/04 06:07:39;;;;;;;9.00;3.92;;;0.90;99.90;;;;;;5131223;27;20082;-72
2023/04/04 06:10:06;;;;;;;10.50;4.05;;;1.00;99.90;;;;;;5130732;27;20035;-72
2023/04/04 06:12:33;;;;;;;11.85;4.75;;;1.20;99.90;;;;;;5104541;27;20574;-72
2023/04/04 06:14:58;;;;;;;11.02;4.38;;;1.30;99.90;;;;;;5118360;27;20456;-72
2023/04/04 06:17:24;;;;;;;8.15;3.63;;;1.40;99.90;;;;;;5106642;27;20047;-72
2023/04/04 06:19:50;;;;;;;8.85;3.47;;;1.60;99.90;;;;;;5121391;27;20472;-72
2023/04/04 06:22:16;;;;;;;11.60;3.60;;;1.60;99.90;;;;;;5117080;27;20039;-72
2023/04/04 06:24:42;;;;;;;5.90;3.20;;;1.70;99.90;;;;;;5081119;27;20055;-72
2023/04/04 06:27:08;;;;;;;8.70;3.45;;;1.80;99.90;;;;;;5121165;27;20401;-72
2023/04/04 06:29:33;;;;;;;10.43;3.63;;;2.20;99.90;;;;;;5102322;27;20416;-72
2023/04/04 06:31:59;;;;;;;7.72;3.30;;;2.00;99.90;;;;;;5128767;27;20039;-72
2023/04/04 06:34:25;;;;;;;6.32;3.30;;;2.10;99.90;;;;;;5114741;27;20042;-72
2023/04/04 06:36:51;;;;;;;7.07;3.58;;;2.20;99.90;;;;;;5115510;27;20031;-72
2023/04/04 06:39:17;;;;;;;7.07;3.42;;;2.50;99.90;;;;;;5123643;27;20104;-72
2023/04/04 06:41:42;;;;;;;5.03;3.05;;;2.80;99.90;;;;;;5127722;27;20036;-72
2023/04/04 06:44:08;;;;;;;6.68;3.42;;;2.80;99.90;;;;;;5121748;27;20077;-72
2023/04/04 06:46:36;;;;;;;6.43;3.58;;;3.00;99.90;;;;;;5124032;27;20436;-72
2023/04/04 06:49:02;;;;;;;6.38;3.22;;;3.20;99.90;;;;;;5117492;27;20050;-71
2023/04/04 06:51:28;;;;;;;8.10;3.50;;;3.40;99.90;;;;;;5105632;27;20116;-72
2023/04/04 06:54:07;;;;;;;7.68;3.50;;;3.50;99.90;;;;;;5120024;27;20059;-73
2023/04/04 06:56:33;;;;;;;8.23;3.65;;;3.70;99.90;;;;;;5125287;27;20085;-73
2023/04/04 06:58:58;;;;;;;7.28;2.97;;;3.90;99.90;;;;;;5118585;27;20036;-72
2023/04/04 07:01:24;;;;;;;6.75;3.10;;;4.10;99.90;;;;;;5124617;27;20411;-73
2023/04/04 07:03:53;;;;;;;7.60;3.45;;;4.50;99.90;;;;;;5122681;27;20114;-73
2023/04/04 07:06:20;;;;;;;9.38;2.95;;;5.10;99.90;;;;;;5114630;27;20055;-73
2023/04/04 07:08:46;;;;;;;7.35;3.08;;;5.50;99.90;;;;;;5122148;27;20119;-73
2023/04/04 07:11:12;;;;;;;6.45;2.90;;;5.90;99.90;;;;;;5136227;27;20071;-73
2023/04/04 07:13:38;;;;;;;8.02;2.67;;;6.30;99.90;;;;;;5123661;27;20047;-73
2023/04/04 07:16:03;;;;;;;5.00;2.55;;;6.50;99.90;;;;;;5134895;27;20046;-73
2023/04/04 07:18:29;;;;;;;10.35;3.05;;;6.30;99.90;;;;;;5118090;27;20043;-73
2023/04/04 07:20:56;;;;;;;6.80;2.65;;;6.00;99.90;;;;;;5100095;28;20058;-73
2023/04/04 07:23:21;;;;;;;7.13;2.55;;;5.90;99.90;;;;;;5126364;27;20054;-73
2023/04/04 07:25:47;;;;;;;7.25;2.88;;;5.90;99.90;;;;;;5134258;27;20035;-73
2023/04/04 07:28:13;;;;;;;13.55;3.13;;;5.90;99.90;;;;;;5115851;27;20415;-73
2023/04/04 07:30:38;;;;;;;4.68;2.50;;;5.90;99.90;;;;;;5097083;28;20040;-73
2023/04/04 07:33:05;;;;;;;5.50;2.70;;;5.80;99.90;;;;;;5113247;27;20373;-73
2023/04/04 07:35:30;;;;;;;6.53;2.95;;;5.80;99.90;;;;;;5120174;27;20039;-73
2023/04/04 07:37:56;;;;;;;6.97;2.95;;;5.70;99.90;;;;;;5113337;28;20035;-73
2023/04/04 07:40:22;;;;;;;5.53;2.60;;;5.80;99.90;;;;;;5094739;28;20074;-73
2023/04/04 07:42:53;;;;;;;10.30;2.50;;;5.80;99.90;;;;;;5124034;27;20066;-73
2023/04/04 07:45:18;;;;;;;4.93;2.28;;;5.90;99.90;;;;;;5130108;27;20043;-73
2023/04/04 07:47:45;;;;;;;9.80;2.53;;;5.90;99.90;;;;;;5128770;27;20031;-73
2023/04/04 07:50:12;;;;;;;5.00;2.20;;;6.00;99.90;;;;;;5128105;27;20046;-74
2023/04/04 07:52:38;;;;;;;7.20;2.58;;;6.10;99.90;;;;;;5113196;28;20560;-74
2023/04/04 07:55:06;;;;;;;5.90;2.53;;;6.10;99.90;;;;;;5133333;27;20138;-73
2023/04/04 07:57:38;;;;;;;10.68;2.83;;;6.10;99.90;;;;;;5121078;27;20039;-74
2023/04/04 08:00:08;;;;;;;8.38;2.22;;;6.20;99.90;;;;;;5103682;28;20036;-73
2023/04/04 08:02:38;;;;;;;7.10;2.60;;;6.20;99.90;;;;;;5095745;28;20047;-73
2023/04/04 08:05:04;;;;;;;6.07;2.58;;;6.20;99.90;;;;;;5095506;28;20047;-73
2023/04/04 08:07:30;;;;;;;4.78;2.25;;;6.20;99.90;;;;;;5113222;27;20047;-73
2023/04/04 08:09:55;;;;;;;13.95;2.30;;;6.30;99.90;;;;;;5124297;27;20427;-73
2023/04/04 08:12:21;;;;;;;5.40;2.60;;;6.40;99.90;;;;;;5115914;27;20042;-73
2023/04/04 08:14:47;;;;;;;7.63;2.30;;;6.70;99.90;;;;;;5115298;27;20066;-73
2023/04/04 08:17:17;;;;;;;5.20;2.25;;;6.70;99.90;;;;;;5127700;27;20124;-73
2023/04/04 08:19:43;;;;;;;6.15;2.53;;;6.80;99.90;;;;;;5121672;27;20045;-73
2023/04/04 08:22:09;;;;;;;6.38;2.45;;;6.90;99.90;;;;;;5114959;28;20040;-73
2023/04/04 08:24:35;;;;;;;5.93;2.17;;;7.00;99.90;;;;;;5094957;28;20073;-73
2023/04/04 08:27:01;;;;;;;6.55;2.22;;;7.10;99.90;;;;;;5111169;28;20040;-73
2023/04/04 08:29:27;;;;;;;8.43;2.20;;;7.20;99.80;;;;;;5111404;28;20481;-73
2023/04/04 08:31:53;;;;;;;7.00;2.67;;;7.20;98.40;;;;;;5114524;28;20065;-73
2023/04/04 08:34:19;;;;;;;3.92;2.10;;;7.40;99.90;;;;;;5133054;28;20049;-73
2023/04/04 08:36:45;;;;;;;4.13;1.95;;;7.50;99.10;;;;;;5128192;28;20392;-73
2023/04/04 08:39:11;;;;;;;5.63;1.80;;;7.50;98.00;;;;;;5112278;28;20050;-72
2023/04/04 08:41:38;;;;;;;7.70;2.33;;;7.60;96.30;;;;;;5120167;28;20062;-72
2023/04/04 08:44:06;;;;;;;4.95;2.30;;;7.60;97.30;;;;;;5112395;28;20099;-72
2023/04/04 08:46:32;;;;;;;9.38;2.08;;;7.70;97.30;;;;;;5126386;27;20062;-72
2023/04/04 08:48:59;;;;;;;5.07;2.20;;;7.60;96.00;;;;;;5135508;27;20027;-72
2023/04/04 08:51:28;;;;;;;5.40;1.92;;;7.70;95.90;;;;;;5117966;27;20146;-72
2023/04/04 08:53:55;;;;;;;4.22;1.92;;;7.70;96.00;;;;;;5127846;27;20048;-72
2023/04/04 08:56:22;;;;;;;4.93;1.77;;;7.80;95.30;;;;;;5138473;27;20047;-72
2023/04/04 08:58:48;;;;;;;4.70;2.20;;;7.90;95.80;;;;;;5134604;27;20389;-72
2023/04/04 09:01:15;;;;;;;7.82;3.20;;;8.00;95.70;;;;;;5116120;27;20054;-72
2023/04/04 09:03:42;;;;;;;6.75;2.45;;;8.00;93.80;;;;;;5136529;27;20054;-73
2023/04/04 09:06:09;;;;;;;5.03;2.40;;;8.00;94.70;;;;;;5116399;27;20122;-72
2023/04/04 09:08:35;;;;;;;5.00;2.05;;;8.10;92.90;;;;;;5111043;27;20039;-72
2023/04/04 09:11:02;;;;;;;4.93;2.28;;;8.30;94.70;;;;;;5122950;27;20054;-72
2023/04/04 09:13:28;;;;;;;7.10;1.90;;;8.30;94.10;;;;;;5115981;28;20081;-73
2023/04/04 09:15:56;;;;;;;6.20;2.00;;;8.50;94.40;;;;;;5100118;28;20699;-73
2023/04/04 09:18:22;;;;;;;11.15;2.75;;;8.50;92.10;;;;;;5127417;27;20134;-73
2023/04/04 09:20:49;;;;;;;11.25;2.38;;;8.50;93.20;;;;;;5136151;27;20039;-72
2023/04/04 09:23:14;;;;;;;7.13;2.25;;;8.60;93.50;;;;;;5130396;27;20043;-73
2023/04/04 09:25:54;;;;;;;7.68;2.17;;;8.60;92.50;;;;;;5119538;27;20031;-72
2023/04/04 09:28:21;;;;;;;7.63;2.20;;;8.70;91.50;;;;;;5098799;27;20039;-73
2023/04/04 09:30:48;;;;;;;5.43;2.30;;;8.70;92.40;;;;;;5118003;27;20057;-72
2023/04/04 09:33:16;;;;;;;6.05;2.00;;;8.90;92.90;;;;;;5127206;27;20036;-72
2023/04/04 09:35:51;;;;;;;8.15;2.20;;;9.10;92.90;;;;;;5115958;27;20051;-72
2023/04/04 09:38:17;;;;;;;6.28;2.10;;;9.20;92.00;;;;;;5115310;27;20036;-73
2023/04/04 09:40:44;;;;;;;3.97;1.80;;;9.40;90.10;;;;;;5115207;28;20321;-72
2023/04/04 09:43:11;;;;;;;6.95;2.60;;;9.40;91.30;;;;;;5115129;28;20044;-73
2023/04/04 09:45:43;;;;;;;5.25;2.25;;;9.40;91.00;;;;;;5117842;27;20032;-72
2023/04/04 09:48:09;;;;;;;4.85;1.90;;;9.50;90.90;;;;;;5097502;28;20048;-72
2023/04/04 09:50:36;;;;;;;6.90;2.28;;;9.50;90.90;;;;;;5115608;28;20481;-72
2023/04/04 09:53:02;;;;;;;7.28;2.22;;;9.70;91.50;;;;;;5096662;28;20397;-73
2023/04/04 09:55:33;;;;;;;6.10;2.17;;;9.90;91.40;;;;;;5125345;27;20051;-73
2023/04/04 09:58:01;;;;;;;4.88;2.33;;;9.90;89.50;;;;;;5099421;28;20134;-73
2023/04/04 10:00:28;;;;;;;;;;;9.90;90.20;;;;;;5080326;27;20050;-73
2023/04/04 10:02:57;;;;;;;5.60;2.78;;;10.00;90.30;;;;;;5096096;27;20470;-73
2023/04/04 10:05:23;;;;;;;3.80;1.98;;;10.20;91.40;;;;;;5120765;27;20419;-72
2023/04/04 10:07:48;;;;;;;4.93;2.15;;;10.40;91.60;;;;;;5125867;27;20119;-72
2023/04/04 10:10:14;;;;;;;4.45;2.10;;;10.50;90.50;;;;;;5114544;28;20051;-73
2023/04/04 10:12:44;;;;;;;5.00;2.10;;;10.80;91.20;;;;;;5115376;27;20122;-72
2023/04/04 10:15:10;;;;;;;5.63;2.38;;;11.00;91.50;;;;;;5121419;27;20042;-73
2023/04/04 10:17:36;;;;;;;8.52;2.20;;;11.00;90.70;;;;;;5117651;27;20055;-73
2023/04/04 10:20:05;;;;;;;6.38;2.65;;;11.30;90.80;;;;;;5119405;27;20071;-72
2023/04/04 10:22:37;;;;;;;7.32;3.13;;;11.10;88.20;;;;;;5123671;27;20039;-72
2023/04/04 10:25:08;;;;;;;5.30;2.75;;;11.00;84.20;;;;;;5115253;27;20582;-71
2023/04/04 10:27:34;;;;;;;7.57;2.60;;;11.10;85.70;;;;;;5124707;27;20051;-72
2023/04/04 10:30:00;;;;;;;6.53;2.53;;;11.20;88.60;;;;;;5117768;27;20466;-71
2023/04/04 10:32:47;;;;;;;8.05;2.65;;;11.50;85.70;;;;;;5116172;27;20044;-71
2023/04/04 10:35:13;;;;;;;7.88;2.95;;;11.30;82.50;;;;;;5121063;27;20039;-71
2023/04/04 10:37:56;;;;;;;6.00;2.35;;;11.50;86.70;;;;;;5131711;27;20118;-72
2023/04/04 10:40:26;;;;;;;8.18;2.72;;;11.60;83.90;;;;;;5127358;27;20035;-71
2023/04/04 10:42:54;;;;;;;11.55;3.17;;;11.50;83.20;;;;;;5113036;27;20043;-70
2023/04/04 10:45:20;;;;;;;9.23;3.15;;;11.50;86.00;;;;;;5106415;27;20217;-72
2023/04/04 10:47:47;;;;;;;5.60;2.85;;;11.50;85.10;;;;;;5131018;27;20083;-72
2023/04/04 10:50:14;;;;;;;7.88;2.60;;;11.60;83.80;;;;;;5131479;27;20495;-72
2023/04/04 10:52:43;;;;;;;5.47;2.70;;;11.80;84.90;;;;;;5128487;27;20075;-72
2023/04/04 10:55:11;;;;;;;8.02;2.95;;;11.90;84.80;;;;;;5127675;27;20129;-72
2023/04/04 10:57:42;;;;;;;4.68;2.45;;;12.10;85.00;;;;;;5130623;27;20126;-73
2023/04/04 11:00:11;;;;;;;6.25;2.70;;;12.20;80.20;;;;;;5129911;27;20039;-72
2023/04/04 11:03:00;;;;;;;6.45;2.63;;;12.30;84.00;;;;;;5108238;27;20046;-72
2023/04/04 11:05:29;;;;;;;7.53;3.10;;;12.20;79.80;;;;;;5131949;27;20046;-72
2023/04/04 11:08:04;;;;;;;6.25;2.67;;;12.10;81.20;;;;;;5132267;27;20039;-72
2023/04/04 11:10:35;;;;;;;4.28;2.33;;;12.30;77.50;;;;;;5113176;27;20103;-72
2023/04/04 11:13:08;;;;;;;3.88;1.95;;;12.20;78.60;;;;;;5133530;27;20031;-72
2023/04/04 11:15:57;;;;;;;9.13;2.63;;;12.00;78.60;;;;;;5121025;27;20432;-73
2023/04/04 11:18:35;;;;;;;4.80;2.45;;;11.80;77.10;;;;;;5118931;27;20039;-73
2023/04/04 11:21:02;;;;;;;4.78;2.50;;;11.90;77.40;;;;;;5115999;27;20043;-73
2023/04/04 11:23:46;;;;;;;7.07;2.67;;;12.00;79.50;;;;;;5129452;27;20035;-73
2023/04/04 11:26:13;;;;;;;5.07;2.15;;;12.20;76.50;;;;;;5124497;27;20046;-73
2023/04/04 11:28:39;;;;;;;6.82;2.47;;;12.40;78.70;;;;;;5129879;27;20227;-74
2023/04/04 11:31:17;;;;;;;7.53;2.97;;;12.70;78.40;;;;;;5103689;27;20039;-73
2023/04/04 11:34:01;;;;;;;4.55;2.38;;;12.80;75.40;;;;;;5128638;27;20054;-73
2023/04/04 11:36:36;;;;;;;6.55;2.70;;;13.00;73.80;;;;;;5129165;27;20043;-72
2023/04/04 11:39:09;;;;;;;6.82;2.50;;;13.20;74.80;;;;;;5126430;27;20407;-72
2023/04/04 11:41:56;;;;;;;8.00;2.67;;;13.30;73.50;;;;;;5119951;27;20039;-73
2023/04/04 11:44:23;;;;;;;6.93;2.63;;;13.40;72.20;;;;;;5112502;27;20392;-74
2023/04/04 11:46:55;;;;;;;7.43;2.65;;;13.40;72.50;;;;;;5106698;27;20372;-73
2023/04/04 11:49:31;;;;;;;4.43;2.40;;;13.60;71.90;;;;;;5124792;27;20043;-72
2023/04/04 11:51:57;;;;;;;5.15;2.53;;;14.00;72.30;;;;;;5131420;27;20044;-72
2023/04/04 11:54:23;;;;;;;5.78;2.13;;;14.20;70.70;;;;;;5127894;27;20054;-74
2023/04/04 11:56:49;;;;;;;4.63;2.00;;;14.30;71.80;;;;;;5133888;27;20051;-73
2023/04/04 11:59:19;;;;;;;4.22;2.10;;;14.10;70.20;;;;;;5109966;27;20408;-73
2023/04/04 12:01:45;;;;;;;7.68;2.55;;;14.10;68.80;;;;;;5128922;27;20407;-73
2023/04/04 12:04:11;;;;;;;4.88;2.20;;;14.10;67.30;;;;;;5113176;27;20066;-72
2023/04/04 12:06:37;;;;;;;5.88;2.60;;;13.70;69.80;;;;;;5129599;27;20031;-73
2023/04/04 12:09:05;;;;;;;5.68;2.40;;;13.20;66.90;;;;;;5109834;27;20043;-73
2023/04/04 12:11:33;;;;;;;5.57;2.67;;;13.00;69.00;;;;;;5087836;27;20044;-73
2023/04/04 12:14:00;;;;;;;7.60;3.00;;;13.10;69.50;;;;;;5121986;27;20118;-73
2023/04/04 12:16:27;;;;;;;5.32;2.40;;;13.10;69.50;;;;;;5105850;28;20054;-72
2023/04/04 12:18:53;;;;;;;11.52;3.08;;;13.60;69.40;;;;;;5094821;28;20044;-73
2023/04/04 12:21:19;;;;;;;5.28;2.47;;;13.60;68.30;;;;;;5095211;28;20398;-73
2023/04/04 12:23:48;;;;;;;6.65;2.80;;;13.70;68.20;;;;;;5116027;27;20088;-73
2023/04/04 12:26:15;;;;;;;5.57;2.40;;;13.60;66.70;;;;;;5131279;27;20476;-73
2023/04/04 12:28:44;;;;;;;6.45;2.70;;;13.60;67.70;;;;;;5121332;27;20491;-75
2023/04/04 12:31:11;;;;;;;11.32;2.83;;;13.40;63.60;;;;;;5110029;28;20175;-72
2023/04/04 12:33:39;;;;;;;6.45;2.78;;;13.20;66.00;;;;;;5113600;28;20066;-73
2023/04/04 12:36:05;;;;;;;6.05;2.70;;;13.00;65.50;;;;;;5116445;28;20064;-72
2023/04/04 12:38:31;;;;;;;5.63;2.55;;;12.90;66.90;;;;;;5117097;28;20054;-72
2023/04/04 12:40:59;;;;;;;6.65;2.97;;;12.80;67.50;;;;;;5116777;28;20031;-73
2023/04/04 12:43:28;;;;;;;6.45;2.75;;;12.80;66.40;;;;;;5121998;27;20066;-73
2023/04/04 12:45:56;;;;;;;7.68;2.80;;;12.80;68.10;;;;;;5124629;28;20549;-73
2023/04/04 12:48:28;;;;;;;;;;;13.00;68.80;;;;;;5107807;27;20088;-73
2023/04/04 12:50:55;;;;;;;5.38;2.65;;;13.10;68.60;;;;;;5117846;27;19926;-73
2023/04/04 12:53:26;;;;;;;7.05;2.83;;;13.80;70.00;;;;;;5114787;28;20040;-73